Arthur, Illinois
Current Conditions -  °F | °C
As of 6:53 AM on Sunday 23 Nov 2014 (Local Time) from KMTO Reporting Station
Clear Clear  
Wind Chill: 42°   Ceiling: Unl
Heat Index: 48°   Visibility: 10mi
Dew Point: 41°   Wind: 14mph
Humidity: 77%   Direction: 160°SSE
Pressure: 29.8"   Gusts: NA
Location:  39.71°N, 88.47°W
Report Text: KMTO 231253Z AUTO 16012KT 10SM CLR 09/05 A2980 RMK AO2 SLP092 T00890050
Loading
Personal Weather Stations






























Interactive Weather Map New forecast layout! Learn more

10-Day Weather Forecast

Advertisements
Track Severe Weather on mobile